Terminal Aerodrome Forecast
Issued by NWS Sterling, VA

Current Version | Previous Version | Graphics & Text | Print | Product List | Glossary On
Versions: 1 2 3 4 5 6 7 8 9 10 11 12 13 14 15 16 17 18 19 20 21 22 23
817
FTUS41 KLWX 240536
TAFIAD
TAF
KIAD 240536Z 2406/2512 19005KT P6SM SCT200
     FM241000 18003KT 3SM BR BKN150
     FM241400 18006KT P6SM BKN250
     FM241700 18012G20KT P6SM SCT250
     FM250300 17009KT P6SM BKN035
     FM250600 17009KT P6SM BKN025=

USA.gov is the U.S. government's official web portal to all federal, state and local government web resources and services.